sensor_id;sensor_type;location;lat;lon;timestamp;pressure;altitude;pressure_sealevel;temperature;humidity
70841;BME280;58465;51.534;9.934;2022-09-12T00:02:17;100242.78;;;12.24;83.50
70841;BME280;58465;51.534;9.934;2022-09-12T00:04:42;100245.47;;;12.24;83.67
70841;BME280;58465;51.534;9.934;2022-09-12T00:07:07;100244.59;;;12.22;83.50
70841;BME280;58465;51.534;9.934;2022-09-12T00:09:32;100247.34;;;12.20;83.59
70841;BME280;58465;51.534;9.934;2022-09-12T00:11:58;100252.75;;;12.19;83.65
70841;BME280;58465;51.534;9.934;2022-09-12T00:14:23;100238.53;;;12.15;83.47
70841;BME280;58465;51.534;9.934;2022-09-12T00:16:48;100239.47;;;12.14;83.72
70841;BME280;58465;51.534;9.934;2022-09-12T00:19:13;100235.06;;;12.12;83.67
70841;BME280;58465;51.534;9.934;2022-09-12T00:21:39;100228.03;;;12.08;83.82
70841;BME280;58465;51.534;9.934;2022-09-12T00:24:05;100224.56;;;12.04;83.68
70841;BME280;58465;51.534;9.934;2022-09-12T00:26:31;100222.81;;;12.02;83.64
70841;BME280;58465;51.534;9.934;2022-09-12T00:28:56;100227.25;;;12.03;83.73
70841;BME280;58465;51.534;9.934;2022-09-12T00:31:24;100226.44;;;12.01;83.74
70841;BME280;58465;51.534;9.934;2022-09-12T00:33:51;100222.03;;;11.98;83.61
70841;BME280;58465;51.534;9.934;2022-09-12T00:36:21;100223.81;;;11.99;83.67
70841;BME280;58465;51.534;9.934;2022-09-12T00:38:48;100223.63;;;12.05;84.00
70841;BME280;58465;51.534;9.934;2022-09-12T00:41:35;100219.06;;;12.10;83.67
70841;BME280;58465;51.534;9.934;2022-09-12T00:46:53;100213.81;;;12.06;83.56
70841;BME280;58465;51.534;9.934;2022-09-12T00:49:38;100216.56;;;12.03;83.60
70841;BME280;58465;51.534;9.934;2022-09-12T00:52:14;100213.97;;;12.00;83.63
70841;BME280;58465;51.534;9.934;2022-09-12T00:54:44;100224.69;;;12.00;83.72
70841;BME280;58465;51.534;9.934;2022-09-12T00:57:13;100221.19;;;11.96;83.61
70841;BME280;58465;51.534;9.934;2022-09-12T00:59:43;100223.03;;;11.94;83.71
70841;BME280;58465;51.534;9.934;2022-09-12T01:02:10;100209.56;;;11.97;83.96
70841;BME280;58465;51.534;9.934;2022-09-12T01:04:38;100212.13;;;12.02;83.75
70841;BME280;58465;51.534;9.934;2022-09-12T01:07:05;100206.69;;;12.05;83.58
70841;BME280;58465;51.534;9.934;2022-09-12T01:09:32;100205.84;;;12.03;83.64
70841;BME280;58465;51.534;9.934;2022-09-12T01:11:57;100211.28;;;12.00;83.75
70841;BME280;58465;51.534;9.934;2022-09-12T01:14:25;100206.19;;;11.91;83.76
70841;BME280;58465;51.534;9.934;2022-09-12T01:16:51;100199.97;;;11.88;83.85
70841;BME280;58465;51.534;9.934;2022-09-12T01:19:43;100203.63;;;11.84;84.00
70841;BME280;58465;51.534;9.934;2022-09-12T01:25:37;100195.63;;;11.84;84.23
70841;BME280;58465;51.534;9.934;2022-09-12T01:31:05;100194.69;;;11.85;84.36
70841;BME280;58465;51.534;9.934;2022-09-12T01:33:47;100190.38;;;11.80;84.07
70841;BME280;58465;51.534;9.934;2022-09-12T01:36:23;100200.31;;;11.75;84.15
70841;BME280;58465;51.534;9.934;2022-09-12T01:39:02;100201.19;;;11.74;84.29
70841;BME280;58465;51.534;9.934;2022-09-12T01:41:38;100203.00;;;11.73;84.35
70841;BME280;58465;51.534;9.934;2022-09-12T01:44:24;100191.56;;;11.67;84.37
70841;BME280;58465;51.534;9.934;2022-09-12T01:47:38;100203.13;;;11.69;84.56
70841;BME280;58465;51.534;9.934;2022-09-12T01:50:18;100195.25;;;11.63;84.37
70841;BME280;58465;51.534;9.934;2022-09-12T01:52:55;100195.31;;;11.60;84.31
70841;BME280;58465;51.534;9.934;2022-09-12T01:55:26;100190.75;;;11.63;84.51
70841;BME280;58465;51.534;9.934;2022-09-12T02:00:26;100195.25;;;11.63;84.02
70841;BME280;58465;51.534;9.934;2022-09-12T02:02:56;100197.88;;;11.64;84.26
70841;BME280;58465;51.534;9.934;2022-09-12T02:08:10;100196.63;;;11.80;84.22
70841;BME280;58465;51.534;9.934;2022-09-12T02:10:55;100189.69;;;11.72;83.71
70841;BME280;58465;51.534;9.934;2022-09-12T02:13:23;100191.56;;;11.67;83.72
70841;BME280;58465;51.534;9.934;2022-09-12T02:15:54;100188.22;;;11.59;84.04
70841;BME280;58465;51.534;9.934;2022-09-12T02:18:25;100178.47;;;11.54;84.03
70841;BME280;58465;51.534;9.934;2022-09-12T02:20:52;100185.72;;;11.51;84.00
70841;BME280;58465;51.534;9.934;2022-09-12T02:23:23;100176.00;;;11.47;84.20
70841;BME280;58465;51.534;9.934;2022-09-12T02:25:54;100167.22;;;11.42;84.26
70841;BME280;58465;51.534;9.934;2022-09-12T02:28:26;100182.47;;;11.37;84.31
70841;BME280;58465;51.534;9.934;2022-09-12T02:31:33;100178.13;;;11.33;84.43
70841;BME280;58465;51.534;9.934;2022-09-12T02:36:52;100172.16;;;11.22;84.52
70841;BME280;58465;51.534;9.934;2022-09-12T02:39:19;100180.16;;;11.23;84.66
70841;BME280;58465;51.534;9.934;2022-09-12T02:41:56;100177.50;;;11.22;84.57
70841;BME280;58465;51.534;9.934;2022-09-12T02:44:24;100175.78;;;11.19;84.66
70841;BME280;58465;51.534;9.934;2022-09-12T02:46:54;100167.72;;;11.21;84.95
70841;BME280;58465;51.534;9.934;2022-09-12T02:49:21;100170.44;;;11.19;84.84
70841;BME280;58465;51.534;9.934;2022-09-12T02:51:47;100169.53;;;11.19;84.80
70841;BME280;58465;51.534;9.934;2022-09-12T02:54:14;100174.88;;;11.20;84.83
70841;BME280;58465;51.534;9.934;2022-09-12T02:56:42;100175.75;;;11.21;84.76
70841;BME280;58465;51.534;9.934;2022-09-12T02:59:11;100169.59;;;11.15;84.85
70841;BME280;58465;51.534;9.934;2022-09-12T03:07:18;100168.69;;;11.16;84.60
70841;BME280;58465;51.534;9.934;2022-09-12T03:10:17;100162.63;;;11.10;84.94
70841;BME280;58465;51.534;9.934;2022-09-12T03:13:05;100167.13;;;11.06;84.84
70841;BME280;58465;51.534;9.934;2022-09-12T03:21:25;100169.94;;;11.02;85.16
70841;BME280;58465;51.534;9.934;2022-09-12T03:26:30;100167.22;;;11.05;85.18
70841;BME280;58465;51.534;9.934;2022-09-12T03:28:57;100166.34;;;11.03;85.16
70841;BME280;58465;51.534;9.934;2022-09-12T03:31:24;100163.72;;;11.01;85.22
70841;BME280;58465;51.534;9.934;2022-09-12T03:33:49;100163.72;;;11.01;84.99
70841;BME280;58465;51.534;9.934;2022-09-12T03:36:19;100168.19;;;10.99;84.78
70841;BME280;58465;51.534;9.934;2022-09-12T03:38:45;100165.59;;;10.96;84.67
70841;BME280;58465;51.534;9.934;2022-09-12T03:41:11;100171.00;;;10.95;84.69
70841;BME280;58465;51.534;9.934;2022-09-12T03:43:36;100158.56;;;10.92;84.56
70841;BME280;58465;51.534;9.934;2022-09-12T03:46:01;100163.97;;;10.89;84.40
70841;BME280;58465;51.534;9.934;2022-09-12T03:48:27;100168.47;;;10.87;84.60
70841;BME280;58465;51.534;9.934;2022-09-12T03:50:52;100167.50;;;10.91;84.53
70841;BME280;58465;51.534;9.934;2022-09-12T03:53:17;100167.44;;;10.94;84.75
70841;BME280;58465;51.534;9.934;2022-09-12T03:55:43;100161.19;;;10.95;84.71
70841;BME280;58465;51.534;9.934;2022-09-12T03:58:08;100164.75;;;10.94;84.39
70841;BME280;58465;51.534;9.934;2022-09-12T04:00:33;100162.91;;;10.96;84.46
70841;BME280;58465;51.534;9.934;2022-09-12T04:02:59;100171.81;;;10.97;84.45
70841;BME280;58465;51.534;9.934;2022-09-12T04:05:24;100178.03;;;10.97;84.31
70841;BME280;58465;51.534;9.934;2022-09-12T04:07:50;100170.91;;;10.98;84.77
70841;BME280;58465;51.534;9.934;2022-09-12T04:10:16;100176.22;;;10.99;84.81
70841;BME280;58465;51.534;9.934;2022-09-12T04:12:41;100174.34;;;11.04;84.79
70841;BME280;58465;51.534;9.934;2022-09-12T04:15:07;100184.03;;;11.08;84.54
70841;BME280;58465;51.534;9.934;2022-09-12T04:17:33;100178.69;;;11.08;84.66
70841;BME280;58465;51.534;9.934;2022-09-12T04:19:59;100182.28;;;11.07;84.56
70841;BME280;58465;51.534;9.934;2022-09-12T04:22:24;100179.75;;;11.01;84.53
70841;BME280;58465;51.534;9.934;2022-09-12T04:24:49;100169.13;;;10.98;84.36
70841;BME280;58465;51.534;9.934;2022-09-12T04:27:15;100176.91;;;11.07;84.59
70841;BME280;58465;51.534;9.934;2022-09-12T04:29:40;100175.94;;;11.11;84.53
70841;BME280;58465;51.534;9.934;2022-09-12T04:32:05;100182.09;;;11.15;84.64
70841;BME280;58465;51.534;9.934;2022-09-12T04:34:30;100178.41;;;11.21;84.36
70841;BME280;58465;51.534;9.934;2022-09-12T04:36:56;100180.16;;;11.23;84.05
70841;BME280;58465;51.534;9.934;2022-09-12T04:39:22;100182.00;;;11.20;83.96
70841;BME280;58465;51.534;9.934;2022-09-12T04:41:47;100188.16;;;11.23;83.92
70841;BME280;58465;51.534;9.934;2022-09-12T04:44:13;100181.03;;;11.24;83.93
70841;BME280;58465;51.534;9.934;2022-09-12T04:46:41;100185.50;;;11.23;83.62
70841;BME280;58465;51.534;9.934;2022-09-12T04:49:07;100185.50;;;11.23;83.72
70841;BME280;58465;51.534;9.934;2022-09-12T04:51:35;100184.69;;;11.20;83.54
70841;BME280;58465;51.534;9.934;2022-09-12T04:54:03;100184.69;;;11.20;83.42
70841;BME280;58465;51.534;9.934;2022-09-12T04:56:29;100180.28;;;11.17;83.72
70841;BME280;58465;51.534;9.934;2022-09-12T04:58:59;100190.03;;;11.20;83.66
70841;BME280;58465;51.534;9.934;2022-09-12T05:01:26;100186.41;;;11.22;83.74
70841;BME280;58465;51.534;9.934;2022-09-12T05:03:52;100189.88;;;11.26;83.80
70841;BME280;58465;51.534;9.934;2022-09-12T05:06:21;100185.44;;;11.25;83.65
70841;BME280;58465;51.534;9.934;2022-09-12T05:08:48;100171.47;;;11.13;83.57
70841;BME280;58465;51.534;9.934;2022-09-12T05:11:16;100182.94;;;11.17;83.79
70841;BME280;58465;51.534;9.934;2022-09-12T05:13:42;100179.38;;;11.16;83.67
70841;BME280;58465;51.534;9.934;2022-09-12T05:16:10;100185.34;;;11.29;83.86
70841;BME280;58465;51.534;9.934;2022-09-12T05:18:36;100186.16;;;11.33;82.97
70841;BME280;58465;51.534;9.934;2022-09-12T05:21:05;100185.19;;;11.35;82.38
70841;BME280;58465;51.534;9.934;2022-09-12T05:23:31;100188.03;;;11.28;82.26
70841;BME280;58465;51.534;9.934;2022-09-12T05:25:58;100188.78;;;11.34;82.13
70841;BME280;58465;51.534;9.934;2022-09-12T05:28:28;100189.09;;;11.22;81.78
70841;BME280;58465;51.534;9.934;2022-09-12T05:31:13;100195.16;;;11.29;82.09
70841;BME280;58465;51.534;9.934;2022-09-12T05:33:40;100194.94;;;11.38;82.28
70841;BME280;58465;51.534;9.934;2022-09-12T05:36:10;100193.19;;;11.37;82.00
70841;BME280;58465;51.534;9.934;2022-09-12T05:38:36;100199.28;;;11.43;81.90
70841;BME280;58465;51.534;9.934;2022-09-12T05:41:23;100203.41;;;11.57;81.74
70841;BME280;58465;51.534;9.934;2022-09-12T05:43:53;100207.69;;;11.64;81.14
70841;BME280;58465;51.534;9.934;2022-09-12T05:46:21;100205.81;;;11.67;80.60
70841;BME280;58465;51.534;9.934;2022-09-12T05:48:47;100205.06;;;11.62;80.48
70841;BME280;58465;51.534;9.934;2022-09-12T05:51:18;100205.19;;;11.56;80.38
70841;BME280;58465;51.534;9.934;2022-09-12T05:53:49;100209.56;;;11.60;80.53
70841;BME280;58465;51.534;9.934;2022-09-12T05:56:17;100203.41;;;11.57;80.74
70841;BME280;58465;51.534;9.934;2022-09-12T05:58:45;100203.31;;;11.61;80.60
70841;BME280;58465;51.534;9.934;2022-09-12T06:01:14;100212.94;;;11.68;80.57
70841;BME280;58465;51.534;9.934;2022-09-12T06:03:41;100204.72;;;11.77;80.46
70841;BME280;58465;51.534;9.934;2022-09-12T06:06:08;100211.66;;;11.84;80.65
70841;BME280;58465;51.534;9.934;2022-09-12T06:08:34;100214.06;;;11.95;80.44
70841;BME280;58465;51.534;9.934;2022-09-12T06:11:02;100213.69;;;12.10;79.57
70841;BME280;58465;51.534;9.934;2022-09-12T06:13:30;100218.84;;;12.18;78.85
70841;BME280;58465;51.534;9.934;2022-09-12T06:16:07;100214.25;;;12.23;78.70
70841;BME280;58465;51.534;9.934;2022-09-12T06:18:34;100214.09;;;12.29;78.36
70841;BME280;58465;51.534;9.934;2022-09-12T06:21:04;100208.91;;;12.21;78.25
70841;BME280;58465;51.534;9.934;2022-09-12T06:23:30;100214.47;;;12.14;78.25
70841;BME280;58465;51.534;9.934;2022-09-12T06:25:55;100202.13;;;12.10;79.05
70841;BME280;58465;51.534;9.934;2022-09-12T06:28:21;100209.41;;;12.03;79.36
70841;BME280;58465;51.534;9.934;2022-09-12T06:30:46;100210.16;;;12.10;79.41
70841;BME280;58465;51.534;9.934;2022-09-12T06:33:12;100207.28;;;12.16;78.92
70841;BME280;58465;51.534;9.934;2022-09-12T06:35:39;100203.44;;;12.26;79.02
70841;BME280;58465;51.534;9.934;2022-09-12T06:38:05;100204.94;;;12.38;78.33
70841;BME280;58465;51.534;9.934;2022-09-12T06:40:31;100193.34;;;12.37;78.45
70841;BME280;58465;51.534;9.934;2022-09-12T06:42:56;100198.22;;;12.54;78.23
70841;BME280;58465;51.534;9.934;2022-09-12T06:45:22;100189.06;;;12.61;77.62
70841;BME280;58465;51.534;9.934;2022-09-12T06:47:47;100192.91;;;12.52;77.98
70841;BME280;58465;51.534;9.934;2022-09-12T06:50:13;100196.78;;;12.73;77.29
70841;BME280;58465;51.534;9.934;2022-09-12T06:52:38;100189.84;;;12.66;77.28
70841;BME280;58465;51.534;9.934;2022-09-12T06:55:03;100186.69;;;12.81;76.96
70841;BME280;58465;51.534;9.934;2022-09-12T06:57:30;100189.34;;;12.83;76.59
70841;BME280;58465;51.534;9.934;2022-09-12T06:59:56;100188.41;;;12.84;76.46
70841;BME280;58465;51.534;9.934;2022-09-12T07:02:21;100192.09;;;12.80;76.66
70841;BME280;58465;51.534;9.934;2022-09-12T07:04:47;100199.50;;;13.01;76.23
70841;BME280;58465;51.534;9.934;2022-09-12T07:07:14;100197.41;;;13.12;75.83
70841;BME280;58465;51.534;9.934;2022-09-12T07:09:39;100200.66;;;13.23;75.72
70841;BME280;58465;51.534;9.934;2022-09-12T07:12:04;100196.28;;;13.49;75.22
70841;BME280;58465;51.534;9.934;2022-09-12T07:14:31;100194.22;;;13.57;74.63
70841;BME280;58465;51.534;9.934;2022-09-12T07:16:57;100205.81;;;13.85;74.09
70841;BME280;58465;51.534;9.934;2022-09-12T07:19:22;100194.34;;;14.06;73.07
70841;BME280;58465;51.534;9.934;2022-09-12T07:21:48;100189.81;;;14.08;72.89
70841;BME280;58465;51.534;9.934;2022-09-12T07:24:13;100189.25;;;13.99;73.03
70841;BME280;58465;51.534;9.934;2022-09-12T07:26:39;100192.03;;;13.96;72.69
70841;BME280;58465;51.534;9.934;2022-09-12T07:29:08;100190.34;;;13.93;73.12
70841;BME280;58465;51.534;9.934;2022-09-12T07:31:37;100184.19;;;13.90;73.60
70841;BME280;58465;51.534;9.934;2022-09-12T07:34:05;100188.13;;;14.04;73.42
70841;BME280;58465;51.534;9.934;2022-09-12T07:36:30;100189.63;;;14.13;72.83
70841;BME280;58465;51.534;9.934;2022-09-12T07:38:56;100181.16;;;14.25;73.16
70841;BME280;58465;51.534;9.934;2022-09-12T07:41:27;100175.19;;;14.42;72.07
70841;BME280;58465;51.534;9.934;2022-09-12T07:43:58;100178.03;;;14.37;71.99
70841;BME280;58465;51.534;9.934;2022-09-12T07:46:24;100181.09;;;14.27;72.87
70841;BME280;58465;51.534;9.934;2022-09-12T07:48:54;100181.88;;;14.30;73.52
70841;BME280;58465;51.534;9.934;2022-09-12T07:51:20;100183.00;;;14.50;72.73
70841;BME280;58465;51.534;9.934;2022-09-12T07:53:46;100184.28;;;14.63;72.31
70841;BME280;58465;51.534;9.934;2022-09-12T07:56:13;100181.44;;;14.67;72.35
70841;BME280;58465;51.534;9.934;2022-09-12T07:58:40;100173.16;;;14.73;72.30
70841;BME280;58465;51.534;9.934;2022-09-12T08:01:08;100173.88;;;14.78;72.48
70841;BME280;58465;51.534;9.934;2022-09-12T08:03:34;100172.34;;;14.95;72.09
70841;BME280;58465;51.534;9.934;2022-09-12T08:06:04;100180.63;;;15.12;71.54
70841;BME280;58465;51.534;9.934;2022-09-12T08:08:29;100183.03;;;14.73;72.99
70841;BME280;58465;51.534;9.934;2022-09-12T08:10:59;100183.50;;;14.84;73.13
70841;BME280;58465;51.534;9.934;2022-09-12T08:13:26;100189.09;;;15.01;72.70
70841;BME280;58465;51.534;9.934;2022-09-12T08:15:56;100187.66;;;14.93;72.65
70841;BME280;58465;51.534;9.934;2022-09-12T08:18:21;100196.03;;;15.08;72.65
70841;BME280;58465;51.534;9.934;2022-09-12T08:20:47;100189.00;;;15.04;72.75
70841;BME280;58465;51.534;9.934;2022-09-12T08:23:12;100181.28;;;14.95;73.21
70841;BME280;58465;51.534;9.934;2022-09-12T08:25:37;100182.94;;;14.99;73.42
70841;BME280;58465;51.534;9.934;2022-09-12T08:28:03;100183.56;;;15.06;73.15
70841;BME280;58465;51.534;9.934;2022-09-12T08:30:28;100184.13;;;15.37;72.46
70841;BME280;58465;51.534;9.934;2022-09-12T08:32:54;100186.66;;;15.64;71.62
70841;BME280;58465;51.534;9.934;2022-09-12T08:35:20;100184.06;;;16.04;70.47
70841;BME280;58465;51.534;9.934;2022-09-12T08:37:46;100192.16;;;16.45;69.26
70841;BME280;58465;51.534;9.934;2022-09-12T08:40:14;100178.44;;;16.71;67.94
70841;BME280;58465;51.534;9.934;2022-09-12T08:43:06;100181.09;;;16.91;67.57
70841;BME280;58465;51.534;9.934;2022-09-12T08:45:53;100180.00;;;17.14;66.44
70841;BME280;58465;51.534;9.934;2022-09-12T08:48:21;100172.66;;;17.18;66.50
70841;BME280;58465;51.534;9.934;2022-09-12T08:50:46;100174.16;;;17.23;66.05
70841;BME280;58465;51.534;9.934;2022-09-12T08:53:15;100177.16;;;17.17;66.21
70841;BME280;58465;51.534;9.934;2022-09-12T08:55:51;100170.88;;;17.35;66.03
70841;BME280;58465;51.534;9.934;2022-09-12T08:58:19;100167.50;;;17.30;66.47
70841;BME280;58465;51.534;9.934;2022-09-12T09:12:31;100162.56;;;17.59;67.17
70841;BME280;58465;51.534;9.934;2022-09-12T09:15:09;100161.25;;;17.67;67.15
70841;BME280;58465;51.534;9.934;2022-09-12T09:17:45;100164.66;;;17.71;67.10
70841;BME280;58465;51.534;9.934;2022-09-12T09:23:13;100152.88;;;18.25;65.97
70841;BME280;58465;51.534;9.934;2022-09-12T09:26:00;100144.09;;;18.72;64.37
70841;BME280;58465;51.534;9.934;2022-09-12T09:28:36;100149.78;;;18.83;64.09
70841;BME280;58465;51.534;9.934;2022-09-12T09:31:04;100142.66;;;19.13;63.04
70841;BME280;58465;51.534;9.934;2022-09-12T09:33:33;100145.31;;;19.46;62.09
70841;BME280;58465;51.534;9.934;2022-09-12T09:41:55;100135.44;;;19.77;61.77
70841;BME280;58465;51.534;9.934;2022-09-12T09:43:51;100133.06;;;19.71;61.76
70841;BME280;58465;51.534;9.934;2022-09-12T09:46:17;100126.13;;;19.81;61.18
70841;BME280;58465;51.534;9.934;2022-09-12T09:48:45;100124.84;;;20.18;60.18
70841;BME280;58465;51.534;9.934;2022-09-12T09:51:12;100116.56;;;20.19;60.53
70841;BME280;58465;51.534;9.934;2022-09-12T09:53:53;100118.22;;;20.38;59.85
70841;BME280;58465;51.534;9.934;2022-09-12T09:56:34;100116.09;;;20.71;58.81
70841;BME280;58465;51.534;9.934;2022-09-12T10:01:53;100102.59;;;20.98;57.42
70841;BME280;58465;51.534;9.934;2022-09-12T10:04:26;100115.81;;;20.90;58.10
70841;BME280;58465;51.534;9.934;2022-09-12T10:06:56;100103.28;;;21.30;57.67
70841;BME280;58465;51.534;9.934;2022-09-12T10:09:33;100104.25;;;21.29;56.84
70841;BME280;58465;51.534;9.934;2022-09-12T10:12:01;100100.97;;;21.24;56.70
70841;BME280;58465;51.534;9.934;2022-09-12T10:14:55;100099.50;;;21.32;55.71
70841;BME280;58465;51.534;9.934;2022-09-12T10:17:22;100098.19;;;21.65;54.86
70841;BME280;58465;51.534;9.934;2022-09-12T10:19:48;100097.78;;;21.98;53.43
70841;BME280;58465;51.534;9.934;2022-09-12T10:22:17;100092.06;;;22.15;53.33
70841;BME280;58465;51.534;9.934;2022-09-12T10:24:48;100086.19;;;22.34;52.65
70841;BME280;58465;51.534;9.934;2022-09-12T10:27:18;100083.66;;;22.05;52.50
70841;BME280;58465;51.534;9.934;2022-09-12T10:29:45;100082.50;;;22.35;52.65
70841;BME280;58465;51.534;9.934;2022-09-12T10:32:18;100082.94;;;22.54;52.09
70841;BME280;58465;51.534;9.934;2022-09-12T10:34:45;100072.91;;;22.80;51.39
70841;BME280;58465;51.534;9.934;2022-09-12T10:39:51;100076.41;;;22.94;49.92
70841;BME280;58465;51.534;9.934;2022-09-12T10:42:48;100071.41;;;22.38;50.50
70841;BME280;58465;51.534;9.934;2022-09-12T10:45:28;100072.38;;;22.37;51.70
70841;BME280;58465;51.534;9.934;2022-09-12T10:47:58;100070.63;;;22.10;51.29
70841;BME280;58465;51.534;9.934;2022-09-12T10:50:30;100060.63;;;22.24;50.87
70841;BME280;58465;51.534;9.934;2022-09-12T10:55:37;100067.25;;;22.83;48.59
70841;BME280;58465;51.534;9.934;2022-09-12T11:01:07;100056.13;;;23.35;47.77
70841;BME280;58465;51.534;9.934;2022-09-12T11:12:20;100049.34;;;23.04;48.17
70841;BME280;58465;51.534;9.934;2022-09-12T11:14:59;100047.88;;;23.24;47.05
70841;BME280;58465;51.534;9.934;2022-09-12T11:17:37;100045.06;;;23.49;47.11
70841;BME280;58465;51.534;9.934;2022-09-12T11:25:48;100042.78;;;24.37;43.99
70841;BME280;58465;51.534;9.934;2022-09-12T11:34:17;100032.50;;;24.40;42.95
70841;BME280;58465;51.534;9.934;2022-09-12T11:39:37;100026.53;;;24.69;41.56
70841;BME280;58465;51.534;9.934;2022-09-12T11:42:06;100028.78;;;24.97;41.34
70841;BME280;58465;51.534;9.934;2022-09-12T11:44:50;100026.16;;;25.18;38.68
70841;BME280;58465;51.534;9.934;2022-09-12T11:47:18;100026.97;;;25.30;39.06
70841;BME280;58465;51.534;9.934;2022-09-12T11:49:48;100021.75;;;25.59;39.08
70841;BME280;58465;51.534;9.934;2022-09-12T11:52:23;100022.03;;;25.24;37.16
70841;BME280;58465;51.534;9.934;2022-09-12T11:54:55;100012.25;;;24.88;37.35
70841;BME280;58465;51.534;9.934;2022-09-12T11:57:43;100017.44;;;24.91;37.16
70841;BME280;58465;51.534;9.934;2022-09-12T12:00:18;100013.59;;;24.82;37.64
70841;BME280;58465;51.534;9.934;2022-09-12T12:05:58;100017.44;;;24.91;36.55
70841;BME280;58465;51.534;9.934;2022-09-12T12:08:26;100015.69;;;25.23;36.60
70841;BME280;58465;51.534;9.934;2022-09-12T12:10:59;100003.34;;;25.72;35.79
70841;BME280;58465;51.534;9.934;2022-09-12T12:13:37;100003.81;;;25.77;34.21
70841;BME280;58465;51.534;9.934;2022-09-12T12:16:25;100006.56;;;25.98;33.13
70841;BME280;58465;51.534;9.934;2022-09-12T12:18:56;100006.09;;;26.34;32.85
70841;BME280;58465;51.534;9.934;2022-09-12T12:21:45;100001.66;;;26.73;32.49
70841;BME280;58465;51.534;9.934;2022-09-12T12:24:22;99995.06;;;27.25;31.75
70841;BME280;58465;51.534;9.934;2022-09-12T12:36:52;99978.53;;;27.85;31.81
70841;BME280;58465;51.534;9.934;2022-09-12T12:41:59;99975.47;;;28.91;29.77
70841;BME280;58465;51.534;9.934;2022-09-12T12:47:20;99965.16;;;29.20;28.22
70841;BME280;58465;51.534;9.934;2022-09-12T12:49:56;99961.78;;;28.81;27.87
70841;BME280;58465;51.534;9.934;2022-09-12T12:52:24;99955.19;;;28.27;29.48
70841;BME280;58465;51.534;9.934;2022-09-12T12:54:56;99950.66;;;27.60;30.24
70841;BME280;58465;51.534;9.934;2022-09-12T12:58:00;99965.63;;;27.18;30.16
70841;BME280;58465;51.534;9.934;2022-09-12T13:00:30;99962.66;;;26.90;31.23
70841;BME280;58465;51.534;9.934;2022-09-12T13:05:45;99951.63;;;26.31;32.20
70841;BME280;58465;51.534;9.934;2022-09-12T13:10:51;99938.25;;;26.38;32.22
70841;BME280;58465;51.534;9.934;2022-09-12T13:14:05;99949.81;;;26.41;31.96
70841;BME280;58465;51.534;9.934;2022-09-12T13:16:28;99943.09;;;26.04;30.48
70841;BME280;58465;51.534;9.934;2022-09-12T13:18:53;99935.16;;;27.30;29.16
70841;BME280;58465;51.534;9.934;2022-09-12T13:21:20;99928.09;;;29.42;26.56
70841;BME280;58465;51.534;9.934;2022-09-12T13:24:11;99930.38;;;31.10;24.28
70841;BME280;58465;51.534;9.934;2022-09-12T13:26:43;99930.13;;;31.94;23.41
70841;BME280;58465;51.534;9.934;2022-09-12T13:31:36;99924.03;;;30.41;24.49
70841;BME280;58465;51.534;9.934;2022-09-12T13:34:04;99909.91;;;29.67;23.82
70841;BME280;58465;51.534;9.934;2022-09-12T13:36:40;99902.16;;;29.44;24.75
70841;BME280;58465;51.534;9.934;2022-09-12T13:39:25;99903.78;;;28.00;27.10
70841;BME280;58465;51.534;9.934;2022-09-12T13:45:19;99891.22;;;26.02;29.92
70841;BME280;58465;51.534;9.934;2022-09-12T13:47:50;99888.28;;;25.32;31.38
70841;BME280;58465;51.534;9.934;2022-09-12T13:50:26;99898.66;;;24.74;32.10
70841;BME280;58465;51.534;9.934;2022-09-12T13:53:05;99887.16;;;24.48;33.21
70841;BME280;58465;51.534;9.934;2022-09-12T13:55:52;99881.47;;;24.18;34.74
70841;BME280;58465;51.534;9.934;2022-09-12T13:58:26;99879.97;;;24.02;35.09
70841;BME280;58465;51.534;9.934;2022-09-12T14:03:39;99880.69;;;23.71;35.81
70841;BME280;58465;51.534;9.934;2022-09-12T14:06:24;99878.47;;;23.41;36.08
70841;BME280;58465;51.534;9.934;2022-09-12T14:08:50;99871.78;;;23.34;35.91
70841;BME280;58465;51.534;9.934;2022-09-12T14:11:24;99877.41;;;23.20;36.88
70841;BME280;58465;51.534;9.934;2022-09-12T14:16:17;99872.19;;;23.06;38.13
70841;BME280;58465;51.534;9.934;2022-09-12T14:18:46;99877.63;;;23.06;37.89
70841;BME280;58465;51.534;9.934;2022-09-12T14:21:35;99868.00;;;22.89;39.05
70841;BME280;58465;51.534;9.934;2022-09-12T14:24:03;99862.56;;;22.89;38.79
70841;BME280;58465;51.534;9.934;2022-09-12T14:26:33;99857.00;;;22.90;39.64
70841;BME280;58465;51.534;9.934;2022-09-12T14:29:00;99858.72;;;22.91;39.86
70841;BME280;58465;51.534;9.934;2022-09-12T14:31:30;99847.84;;;22.91;39.54
70841;BME280;58465;51.534;9.934;2022-09-12T14:39:59;99841.75;;;22.88;39.16
70841;BME280;58465;51.534;9.934;2022-09-12T14:42:12;99831.22;;;22.83;39.53
70841;BME280;58465;51.534;9.934;2022-09-12T14:45:03;99832.56;;;22.78;39.42
70841;BME280;58465;51.534;9.934;2022-09-12T14:47:34;99831.44;;;22.80;39.92
70841;BME280;58465;51.534;9.934;2022-09-12T14:50:00;99827.25;;;22.76;40.07
70841;BME280;58465;51.534;9.934;2022-09-12T14:52:28;99826.44;;;22.74;40.01
70841;BME280;58465;51.534;9.934;2022-09-12T14:55:40;99821.69;;;22.65;40.21
70841;BME280;58465;51.534;9.934;2022-09-12T14:57:41;99823.34;;;22.68;40.12
70841;BME280;58465;51.534;9.934;2022-09-12T15:00:16;99822.22;;;22.70;39.92
70841;BME280;58465;51.534;9.934;2022-09-12T15:02:45;99812.78;;;22.63;39.98
70841;BME280;58465;51.534;9.934;2022-09-12T15:07:43;99817.25;;;22.64;40.35
70841;BME280;58465;51.534;9.934;2022-09-12T15:12:47;99806.84;;;22.69;40.03
70841;BME280;58465;51.534;9.934;2022-09-12T15:15:17;99807.19;;;22.77;39.88
70841;BME280;58465;51.534;9.934;2022-09-12T15:17:44;99810.91;;;22.76;40.26
70841;BME280;58465;51.534;9.934;2022-09-12T15:20:11;99812.38;;;22.80;40.36
70841;BME280;58465;51.534;9.934;2022-09-12T15:22:37;99813.50;;;22.78;40.42